sensor_id;sensor_type;location;lat;lon;timestamp;pressure;altitude;pressure_sealevel;temperature;humidity
75692;BME280;64307;52.508;6.090;2023-07-31T00:00:11;100823.97;;;15.52;100.00
75692;BME280;64307;52.508;6.090;2023-07-31T00:02:37;100835.91;;;15.56;100.00
75692;BME280;64307;52.508;6.090;2023-07-31T00:05:03;100827.50;;;15.56;100.00
75692;BME280;64307;52.508;6.090;2023-07-31T00:07:28;100809.22;;;15.48;100.00
75692;BME280;64307;52.508;6.090;2023-07-31T00:09:53;100818.94;;;15.64;100.00
75692;BME280;64307;52.508;6.090;2023-07-31T00:12:19;100814.19;;;15.61;100.00
75692;BME280;64307;52.508;6.090;2023-07-31T00:14:45;100812.25;;;15.57;100.00
75692;BME280;64307;52.508;6.090;2023-07-31T00:17:11;100810.94;;;15.62;100.00
75692;BME280;64307;52.508;6.090;2023-07-31T00:19:36;100810.88;;;15.66;100.00
75692;BME280;64307;52.508;6.090;2023-07-31T00:22:03;100803.22;;;15.66;100.00
75692;BME280;64307;52.508;6.090;2023-07-31T00:24:29;100796.19;;;15.58;100.00
75692;BME280;64307;52.508;6.090;2023-07-31T00:26:55;100785.19;;;15.47;100.00
75692;BME280;64307;52.508;6.090;2023-07-31T00:29:20;100783.31;;;15.61;100.00
75692;BME280;64307;52.508;6.090;2023-07-31T00:31:45;100779.41;;;15.54;100.00
75692;BME280;64307;52.508;6.090;2023-07-31T00:34:11;100769.72;;;15.59;100.00
75692;BME280;64307;52.508;6.090;2023-07-31T00:36:36;100773.50;;;15.69;100.00
75692;BME280;64307;52.508;6.090;2023-07-31T00:39:01;100764.88;;;15.60;100.00
75692;BME280;64307;52.508;6.090;2023-07-31T00:41:26;100760.28;;;15.49;100.00
75692;BME280;64307;52.508;6.090;2023-07-31T00:43:52;100767.34;;;15.57;100.00
75692;BME280;64307;52.508;6.090;2023-07-31T00:46:17;100781.66;;;15.63;100.00
75692;BME280;64307;52.508;6.090;2023-07-31T00:48:42;100757.47;;;15.49;100.00
75692;BME280;64307;52.508;6.090;2023-07-31T00:51:08;100765.53;;;15.47;100.00
75692;BME280;64307;52.508;6.090;2023-07-31T00:53:33;100752.50;;;15.57;100.00
75692;BME280;64307;52.508;6.090;2023-07-31T00:55:59;100762.78;;;15.64;100.00
75692;BME280;64307;52.508;6.090;2023-07-31T00:58:24;100751.13;;;15.65;100.00
75692;BME280;64307;52.508;6.090;2023-07-31T01:00:50;100758.16;;;15.73;100.00
75692;BME280;64307;52.508;6.090;2023-07-31T01:03:16;100756.75;;;15.65;100.00
75692;BME280;64307;52.508;6.090;2023-07-31T01:11:33;100752.47;;;15.77;100.00
75692;BME280;64307;52.508;6.090;2023-07-31T01:14:00;100752.47;;;15.77;100.00
75692;BME280;64307;52.508;6.090;2023-07-31T01:16:26;100748.34;;;15.81;100.00
75692;BME280;64307;52.508;6.090;2023-07-31T01:18:52;100742.59;;;15.88;100.00
75692;BME280;64307;52.508;6.090;2023-07-31T01:24:21;100743.72;;;15.91;100.00
75692;BME280;64307;52.508;6.090;2023-07-31T01:26:55;100741.72;;;15.91;100.00
75692;BME280;64307;52.508;6.090;2023-07-31T01:29:32;100743.22;;;15.96;100.00
75692;BME280;64307;52.508;6.090;2023-07-31T01:32:02;100730.56;;;15.88;100.00
75692;BME280;64307;52.508;6.090;2023-07-31T01:34:29;100732.34;;;15.98;100.00
75692;BME280;64307;52.508;6.090;2023-07-31T01:36:56;100742.34;;;15.99;100.00
75692;BME280;64307;52.508;6.090;2023-07-31T01:39:22;100732.69;;;16.00;100.00
75692;BME280;64307;52.508;6.090;2023-07-31T01:41:47;100724.97;;;16.04;100.00
75692;BME280;64307;52.508;6.090;2023-07-31T01:44:12;100727.69;;;16.07;100.00
75692;BME280;64307;52.508;6.090;2023-07-31T01:46:37;100732.94;;;16.05;100.00
75692;BME280;64307;52.508;6.090;2023-07-31T01:49:03;100727.28;;;16.09;100.00
75692;BME280;64307;52.508;6.090;2023-07-31T01:51:30;100720.75;;;16.12;100.00
75692;BME280;64307;52.508;6.090;2023-07-31T01:53:59;100718.31;;;16.14;100.00
75692;BME280;64307;52.508;6.090;2023-07-31T01:56:24;100712.22;;;16.15;100.00
75692;BME280;64307;52.508;6.090;2023-07-31T01:58:49;100700.75;;;16.10;100.00
75692;BME280;64307;52.508;6.090;2023-07-31T02:01:14;100706.91;;;16.21;100.00
75692;BME280;64307;52.508;6.090;2023-07-31T02:03:40;100683.38;;;16.15;100.00
75692;BME280;64307;52.508;6.090;2023-07-31T02:06:08;100690.81;;;16.21;100.00
75692;BME280;64307;52.508;6.090;2023-07-31T02:08:34;100686.53;;;16.17;100.00
75692;BME280;64307;52.508;6.090;2023-07-31T02:10:59;100684.06;;;16.19;100.00
75692;BME280;64307;52.508;6.090;2023-07-31T02:13:24;100694.00;;;16.23;100.00
75692;BME280;64307;52.508;6.090;2023-07-31T02:15:50;100696.25;;;16.28;100.00
75692;BME280;64307;52.508;6.090;2023-07-31T02:18:16;100693.00;;;16.30;100.00
75692;BME280;64307;52.508;6.090;2023-07-31T02:20:41;100688.09;;;16.34;100.00
75692;BME280;64307;52.508;6.090;2023-07-31T02:23:07;100689.34;;;16.33;100.00
75692;BME280;64307;52.508;6.090;2023-07-31T02:25:32;100684.06;;;16.35;100.00
75692;BME280;64307;52.508;6.090;2023-07-31T02:27:57;100676.31;;;16.39;100.00
75692;BME280;64307;52.508;6.090;2023-07-31T02:30:23;100672.72;;;16.38;100.00
75692;BME280;64307;52.508;6.090;2023-07-31T02:32:48;100674.72;;;16.38;100.00
75692;BME280;64307;52.508;6.090;2023-07-31T02:35:14;100671.56;;;16.36;100.00
75692;BME280;64307;52.508;6.090;2023-07-31T02:37:43;100667.91;;;16.39;100.00
75692;BME280;64307;52.508;6.090;2023-07-31T02:40:09;100666.28;;;16.38;100.00
75692;BME280;64307;52.508;6.090;2023-07-31T02:42:35;100656.19;;;16.40;100.00
75692;BME280;64307;52.508;6.090;2023-07-31T02:45:00;100662.63;;;16.41;100.00
75692;BME280;64307;52.508;6.090;2023-07-31T02:47:25;100648.13;;;16.42;100.00
75692;BME280;64307;52.508;6.090;2023-07-31T02:49:51;100656.09;;;16.44;100.00
75692;BME280;64307;52.508;6.090;2023-07-31T02:52:16;100654.44;;;16.47;100.00
75692;BME280;64307;52.508;6.090;2023-07-31T02:54:41;100651.16;;;16.48;100.00
75692;BME280;64307;52.508;6.090;2023-07-31T02:57:07;100650.34;;;16.51;100.00
75692;BME280;64307;52.508;6.090;2023-07-31T02:59:32;100653.84;;;16.55;100.00
75692;BME280;64307;52.508;6.090;2023-07-31T03:01:57;100649.88;;;16.53;100.00
75692;BME280;64307;52.508;6.090;2023-07-31T03:04:23;100646.72;;;16.51;100.00
75692;BME280;64307;52.508;6.090;2023-07-31T03:06:48;100645.28;;;16.59;100.00
75692;BME280;64307;52.508;6.090;2023-07-31T03:09:13;100636.09;;;16.58;100.00
75692;BME280;64307;52.508;6.090;2023-07-31T03:11:38;100654.78;;;16.65;100.00
75692;BME280;64307;52.508;6.090;2023-07-31T03:14:04;100642.75;;;16.64;100.00
75692;BME280;64307;52.508;6.090;2023-07-31T03:16:29;100651.88;;;16.68;100.00
75692;BME280;64307;52.508;6.090;2023-07-31T03:18:54;100645.34;;;16.71;100.00
75692;BME280;64307;52.508;6.090;2023-07-31T03:21:19;100646.50;;;16.74;100.00
75692;BME280;64307;52.508;6.090;2023-07-31T03:23:45;100643.22;;;16.75;100.00
75692;BME280;64307;52.508;6.090;2023-07-31T03:26:10;100650.53;;;16.73;100.00
75692;BME280;64307;52.508;6.090;2023-07-31T03:28:35;100650.44;;;16.76;100.00
75692;BME280;64307;52.508;6.090;2023-07-31T03:31:01;100645.69;;;16.73;100.00
75692;BME280;64307;52.508;6.090;2023-07-31T03:33:26;100646.41;;;16.77;100.00
75692;BME280;64307;52.508;6.090;2023-07-31T03:35:52;100646.41;;;16.77;100.00
75692;BME280;64307;52.508;6.090;2023-07-31T03:38:17;100644.13;;;16.72;100.00
75692;BME280;64307;52.508;6.090;2023-07-31T03:40:42;100647.97;;;16.78;100.00
75692;BME280;64307;52.508;6.090;2023-07-31T03:43:08;100650.44;;;16.76;100.00
75692;BME280;64307;52.508;6.090;2023-07-31T03:45:33;100642.53;;;16.71;100.00
75692;BME280;64307;52.508;6.090;2023-07-31T03:47:58;100643.69;;;16.74;100.00
75692;BME280;64307;52.508;6.090;2023-07-31T03:50:24;100648.84;;;16.75;100.00
75692;BME280;64307;52.508;6.090;2023-07-31T03:52:50;100647.66;;;16.76;100.00
75692;BME280;64307;52.508;6.090;2023-07-31T03:55:15;100629.63;;;16.74;100.00
75692;BME280;64307;52.508;6.090;2023-07-31T03:57:41;100647.97;;;16.78;100.00
75692;BME280;64307;52.508;6.090;2023-07-31T04:00:06;100641.22;;;16.76;100.00
75692;BME280;64307;52.508;6.090;2023-07-31T04:02:32;100639.28;;;16.73;100.00
75692;BME280;64307;52.508;6.090;2023-07-31T04:04:58;100645.28;;;16.75;100.00
75692;BME280;64307;52.508;6.090;2023-07-31T04:07:23;100636.28;;;16.80;100.00
75692;BME280;64307;52.508;6.090;2023-07-31T04:09:49;100639.44;;;16.82;100.00
75692;BME280;64307;52.508;6.090;2023-07-31T04:12:15;100627.94;;;16.76;100.00
75692;BME280;64307;52.508;6.090;2023-07-31T04:14:40;100631.00;;;16.82;100.00
75692;BME280;64307;52.508;6.090;2023-07-31T04:17:05;100632.66;;;16.79;100.00
75692;BME280;64307;52.508;6.090;2023-07-31T04:19:31;100640.69;;;16.81;100.00
75692;BME280;64307;52.508;6.090;2023-07-31T04:21:56;100632.34;;;16.77;100.00
75692;BME280;64307;52.508;6.090;2023-07-31T04:24:21;100632.84;;;16.88;100.00
75692;BME280;64307;52.508;6.090;2023-07-31T04:26:53;100630.56;;;16.83;100.00
75692;BME280;64307;52.508;6.090;2023-07-31T04:29:20;100624.94;;;16.83;100.00
75692;BME280;64307;52.508;6.090;2023-07-31T04:31:45;100622.91;;;16.84;100.00
75692;BME280;64307;52.508;6.090;2023-07-31T04:34:11;100613.44;;;16.78;100.00
75692;BME280;64307;52.508;6.090;2023-07-31T04:36:39;100619.28;;;16.83;100.00
75692;BME280;64307;52.508;6.090;2023-07-31T04:39:04;100613.78;;;16.80;100.00
75692;BME280;64307;52.508;6.090;2023-07-31T04:41:30;100610.63;;;16.78;100.00
75692;BME280;64307;52.508;6.090;2023-07-31T04:43:55;100607.34;;;16.79;100.00
75692;BME280;64307;52.508;6.090;2023-07-31T04:46:20;100612.63;;;16.77;100.00
75692;BME280;64307;52.508;6.090;2023-07-31T04:48:46;100614.00;;;16.85;100.00
75692;BME280;64307;52.508;6.090;2023-07-31T04:51:11;100605.34;;;16.80;100.00
75692;BME280;64307;52.508;6.090;2023-07-31T04:53:37;100606.13;;;16.80;100.00
75692;BME280;64307;52.508;6.090;2023-07-31T04:56:02;100614.00;;;16.85;100.00
75692;BME280;64307;52.508;6.090;2023-07-31T04:58:28;100607.91;;;16.74;100.00
75692;BME280;64307;52.508;6.090;2023-07-31T05:00:53;100612.78;;;16.86;100.00
75692;BME280;64307;52.508;6.090;2023-07-31T05:03:18;100604.25;;;16.90;100.00
75692;BME280;64307;52.508;6.090;2023-07-31T05:05:44;100601.31;;;16.81;100.00
75692;BME280;64307;52.508;6.090;2023-07-31T05:08:09;100608.03;;;16.83;100.00
75692;BME280;64307;52.508;6.090;2023-07-31T05:10:34;100597.25;;;16.82;100.00
75692;BME280;64307;52.508;6.090;2023-07-31T05:13:00;100602.00;;;16.85;100.00
75692;BME280;64307;52.508;6.090;2023-07-31T05:15:25;100584.50;;;16.77;100.00
75692;BME280;64307;52.508;6.090;2023-07-31T05:17:51;100584.97;;;16.76;100.00
75692;BME280;64307;52.508;6.090;2023-07-31T05:20:16;100594.47;;;16.94;100.00
75692;BME280;64307;52.508;6.090;2023-07-31T05:22:41;100593.78;;;16.90;100.00
75692;BME280;64307;52.508;6.090;2023-07-31T05:25:07;100596.44;;;16.81;100.00
75692;BME280;64307;52.508;6.090;2023-07-31T05:27:33;100594.44;;;16.82;100.00
75692;BME280;64307;52.508;6.090;2023-07-31T05:29:58;100584.31;;;16.84;100.00
75692;BME280;64307;52.508;6.090;2023-07-31T05:32:23;100586.03;;;16.94;100.00
75692;BME280;64307;52.508;6.090;2023-07-31T05:34:51;100577.72;;;16.91;100.00
75692;BME280;64307;52.508;6.090;2023-07-31T05:37:17;100588.03;;;16.94;100.00
75692;BME280;64307;52.508;6.090;2023-07-31T05:39:43;100580.75;;;16.96;100.00
75692;BME280;64307;52.508;6.090;2023-07-31T05:42:09;100579.41;;;17.01;100.00
75692;BME280;64307;52.508;6.090;2023-07-31T05:44:34;100587.09;;;17.13;100.00
75692;BME280;64307;52.508;6.090;2023-07-31T05:46:59;100568.19;;;17.13;100.00
75692;BME280;64307;52.508;6.090;2023-07-31T05:49:25;100583.00;;;17.14;100.00
75692;BME280;64307;52.508;6.090;2023-07-31T05:51:50;100575.16;;;17.09;100.00
75692;BME280;64307;52.508;6.090;2023-07-31T05:54:15;100587.28;;;17.06;100.00
75692;BME280;64307;52.508;6.090;2023-07-31T05:56:40;100565.78;;;16.87;100.00
75692;BME280;64307;52.508;6.090;2023-07-31T05:59:06;100578.69;;;16.84;100.00
75692;BME280;64307;52.508;6.090;2023-07-31T06:01:31;100585.00;;;16.88;100.00
75692;BME280;64307;52.508;6.090;2023-07-31T06:03:57;100567.00;;;16.86;100.00
75692;BME280;64307;52.508;6.090;2023-07-31T06:06:22;100567.22;;;16.79;100.00
75692;BME280;64307;52.508;6.090;2023-07-31T06:08:47;100569.91;;;16.82;100.00
75692;BME280;64307;52.508;6.090;2023-07-31T06:11:12;100578.88;;;16.77;100.00
75692;BME280;64307;52.508;6.090;2023-07-31T06:13:38;100575.03;;;16.71;100.00
75692;BME280;64307;52.508;6.090;2023-07-31T06:16:03;100560.88;;;16.62;100.00
75692;BME280;64307;52.508;6.090;2023-07-31T06:18:34;100558.84;;;16.75;100.00
75692;BME280;64307;52.508;6.090;2023-07-31T06:20:59;100548.94;;;16.71;100.00
75692;BME280;64307;52.508;6.090;2023-07-31T06:23:25;100557.41;;;16.83;100.00
75692;BME280;64307;52.508;6.090;2023-07-31T06:25:50;100562.44;;;16.63;100.00
75692;BME280;64307;52.508;6.090;2023-07-31T06:28:16;100554.91;;;16.60;100.00
75692;BME280;64307;52.508;6.090;2023-07-31T06:30:41;100562.91;;;16.74;100.00
75692;BME280;64307;52.508;6.090;2023-07-31T06:33:06;100545.13;;;16.77;100.00
75692;BME280;64307;52.508;6.090;2023-07-31T06:35:32;100550.78;;;16.90;100.00
75692;BME280;64307;52.508;6.090;2023-07-31T06:37:57;100555.50;;;16.80;100.00
75692;BME280;64307;52.508;6.090;2023-07-31T06:40:22;100546.09;;;16.87;100.00
75692;BME280;64307;52.508;6.090;2023-07-31T06:42:48;100545.41;;;16.95;100.00
75692;BME280;64307;52.508;6.090;2023-07-31T06:45:13;100536.94;;;16.95;100.00
75692;BME280;64307;52.508;6.090;2023-07-31T06:47:38;100542.28;;;17.18;100.00
75692;BME280;64307;52.508;6.090;2023-07-31T06:50:04;100533.50;;;17.16;100.00
75692;BME280;64307;52.508;6.090;2023-07-31T06:52:30;100540.59;;;17.21;100.00
75692;BME280;64307;52.508;6.090;2023-07-31T06:55:03;100534.63;;;17.19;100.00
75692;BME280;64307;52.508;6.090;2023-07-31T06:57:29;100513.78;;;17.04;100.00
75692;BME280;64307;52.508;6.090;2023-07-31T06:59:54;100510.88;;;17.07;100.00
75692;BME280;64307;52.508;6.090;2023-07-31T07:02:19;100516.50;;;17.07;100.00
75692;BME280;64307;52.508;6.090;2023-07-31T07:04:45;100504.56;;;16.91;100.00
75692;BME280;64307;52.508;6.090;2023-07-31T07:07:10;100502.97;;;16.90;100.00
75692;BME280;64307;52.508;6.090;2023-07-31T07:09:35;100509.72;;;16.92;100.00
75692;BME280;64307;52.508;6.090;2023-07-31T07:12:00;100492.16;;;16.76;100.00
75692;BME280;64307;52.508;6.090;2023-07-31T07:14:26;100506.81;;;16.96;100.00
75692;BME280;64307;52.508;6.090;2023-07-31T07:16:51;100491.94;;;16.83;100.00
75692;BME280;64307;52.508;6.090;2023-07-31T07:19:17;100500.72;;;17.10;100.00
75692;BME280;64307;52.508;6.090;2023-07-31T07:21:42;100507.28;;;17.07;100.00
75692;BME280;64307;52.508;6.090;2023-07-31T07:24:07;100504.22;;;17.27;100.00
75692;BME280;64307;52.508;6.090;2023-07-31T07:26:33;100503.00;;;17.28;100.00
75692;BME280;64307;52.508;6.090;2023-07-31T07:28:58;100493.41;;;17.12;100.00
75692;BME280;64307;52.508;6.090;2023-07-31T07:31:27;100493.31;;;17.03;100.00
75692;BME280;64307;52.508;6.090;2023-07-31T07:33:53;100492.28;;;17.10;100.00
75692;BME280;64307;52.508;6.090;2023-07-31T07:36:18;100498.84;;;17.19;100.00
75692;BME280;64307;52.508;6.090;2023-07-31T07:38:44;100496.69;;;17.36;100.00
75692;BME280;64307;52.508;6.090;2023-07-31T07:41:09;100490.59;;;17.38;100.00
75692;BME280;64307;52.508;6.090;2023-07-31T07:43:34;100486.44;;;17.30;100.00
75692;BME280;64307;52.508;6.090;2023-07-31T07:45:59;100488.69;;;17.60;100.00
75692;BME280;64307;52.508;6.090;2023-07-31T07:48:25;100486.63;;;17.73;100.00
75692;BME280;64307;52.508;6.090;2023-07-31T07:50:51;100483.31;;;17.87;100.00
75692;BME280;64307;52.508;6.090;2023-07-31T07:53:17;100479.34;;;17.97;100.00
75692;BME280;64307;52.508;6.090;2023-07-31T07:55:42;100469.84;;;17.69;100.00
75692;BME280;64307;52.508;6.090;2023-07-31T07:58:08;100475.38;;;17.73;100.00
75692;BME280;64307;52.508;6.090;2023-07-31T08:00:33;100482.47;;;17.77;100.00
75692;BME280;64307;52.508;6.090;2023-07-31T08:02:58;100481.28;;;17.87;100.00
75692;BME280;64307;52.508;6.090;2023-07-31T08:05:23;100470.94;;;17.84;100.00
75692;BME280;64307;52.508;6.090;2023-07-31T08:07:49;100466.28;;;17.90;100.00
75692;BME280;64307;52.508;6.090;2023-07-31T08:10:14;100483.53;;;17.92;100.00
75692;BME280;64307;52.508;6.090;2023-07-31T08:12:39;100453.16;;;17.75;100.00
75692;BME280;64307;52.508;6.090;2023-07-31T08:15:05;100454.16;;;17.81;100.00
75692;BME280;64307;52.508;6.090;2023-07-31T08:17:31;100464.41;;;17.87;100.00
75692;BME280;64307;52.508;6.090;2023-07-31T08:19:56;100468.09;;;17.84;100.00
75692;BME280;64307;52.508;6.090;2023-07-31T08:22:23;100464.66;;;17.68;100.00
75692;BME280;64307;52.508;6.090;2023-07-31T08:24:48;100464.91;;;17.95;100.00
75692;BME280;64307;52.508;6.090;2023-07-31T08:27:13;100460.84;;;17.96;100.00
75692;BME280;64307;52.508;6.090;2023-07-31T08:29:39;100448.66;;;17.99;100.00
75692;BME280;64307;52.508;6.090;2023-07-31T08:32:04;100465.00;;;18.04;100.00
75692;BME280;64307;52.508;6.090;2023-07-31T08:34:30;100444.44;;;17.82;100.00
75692;BME280;64307;52.508;6.090;2023-07-31T08:36:55;100451.88;;;17.88;100.00
75692;BME280;64307;52.508;6.090;2023-07-31T08:39:20;100447.84;;;17.77;100.00
75692;BME280;64307;52.508;6.090;2023-07-31T08:41:45;100454.88;;;17.94;100.00
75692;BME280;64307;52.508;6.090;2023-07-31T08:44:12;100444.88;;;17.93;100.00
75692;BME280;64307;52.508;6.090;2023-07-31T08:46:39;100445.28;;;18.04;100.00
75692;BME280;64307;52.508;6.090;2023-07-31T08:49:05;100440.22;;;17.99;100.00
75692;BME280;64307;52.508;6.090;2023-07-31T08:51:34;100444.34;;;18.07;100.00
75692;BME280;64307;52.508;6.090;2023-07-31T08:54:00;100444.47;;;18.25;100.00
75692;BME280;64307;52.508;6.090;2023-07-31T08:56:25;100445.81;;;18.55;100.00
75692;BME280;64307;52.508;6.090;2023-07-31T08:58:52;100438.41;;;18.48;100.00
75692;BME280;64307;52.508;6.090;2023-07-31T09:01:19;100442.53;;;18.35;100.00
75692;BME280;64307;52.508;6.090;2023-07-31T09:03:45;100442.78;;;18.49;100.00
75692;BME280;64307;52.508;6.090;2023-07-31T09:06:13;100438.13;;;18.34;100.00
75692;BME280;64307;52.508;6.090;2023-07-31T09:08:41;100447.50;;;18.31;100.00
75692;BME280;64307;52.508;6.090;2023-07-31T09:11:07;100451.16;;;18.40;100.00
75692;BME280;64307;52.508;6.090;2023-07-31T09:13:34;100454.06;;;18.49;100.00
75692;BME280;64307;52.508;6.090;2023-07-31T09:15:59;100446.88;;;18.48;100.00
75692;BME280;64307;52.508;6.090;2023-07-31T09:18:25;100429.19;;;18.35;100.00
75692;BME280;64307;52.508;6.090;2023-07-31T09:21:04;100437.78;;;18.53;100.00
75692;BME280;64307;52.508;6.090;2023-07-31T09:23:44;100432.69;;;18.61;100.00
75692;BME280;64307;52.508;6.090;2023-07-31T09:26:10;100428.88;;;18.55;100.00
75692;BME280;64307;52.508;6.090;2023-07-31T09:28:35;100426.97;;;18.52;100.00
75692;BME280;64307;52.508;6.090;2023-07-31T09:31:00;100427.81;;;18.40;100.00
75692;BME280;64307;52.508;6.090;2023-07-31T09:33:26;100429.69;;;18.55;100.00
75692;BME280;64307;52.508;6.090;2023-07-31T09:35:51;100427.22;;;18.66;100.00
75692;BME280;64307;52.508;6.090;2023-07-31T09:38:16;100422.59;;;18.51;100.00
75692;BME280;64307;52.508;6.090;2023-07-31T09:40:44;100420.78;;;18.66;100.00
75692;BME280;64307;52.508;6.090;2023-07-31T09:43:11;100433.75;;;18.54;100.00
75692;BME280;64307;52.508;6.090;2023-07-31T09:45:38;100422.38;;;18.45;100.00
75692;BME280;64307;52.508;6.090;2023-07-31T09:48:10;100419.63;;;18.54;100.00
75692;BME280;64307;52.508;6.090;2023-07-31T09:50:37;100418.41;;;18.86;100.00
75692;BME280;64307;52.508;6.090;2023-07-31T09:53:02;100422.59;;;18.82;100.00
75692;BME280;64307;52.508;6.090;2023-07-31T09:55:28;100407.75;;;18.99;100.00
75692;BME280;64307;52.508;6.090;2023-07-31T09:57:56;100415.41;;;18.90;100.00
75692;BME280;64307;52.508;6.090;2023-07-31T10:00:22;100406.91;;;19.20;100.00
75692;BME280;64307;52.508;6.090;2023-07-31T10:02:50;100415.00;;;19.67;100.00
75692;BME280;64307;52.508;6.090;2023-07-31T10:05:19;100394.56;;;19.45;100.00
75692;BME280;64307;52.508;6.090;2023-07-31T10:07:54;100396.81;;;19.68;100.00
75692;BME280;64307;52.508;6.090;2023-07-31T10:10:22;100404.47;;;19.58;100.00
75692;BME280;64307;52.508;6.090;2023-07-31T10:12:49;100412.03;;;19.80;100.00
75692;BME280;64307;52.508;6.090;2023-07-31T10:15:16;100399.00;;;20.09;100.00
75692;BME280;64307;52.508;6.090;2023-07-31T10:17:42;100399.00;;;19.82;100.00
75692;BME280;64307;52.508;6.090;2023-07-31T10:20:08;100399.00;;;19.73;100.00
75692;BME280;64307;52.508;6.090;2023-07-31T10:22:34;100406.69;;;19.91;100.00
75692;BME280;64307;52.508;6.090;2023-07-31T10:25:00;100404.34;;;19.80;100.00
75692;BME280;64307;52.508;6.090;2023-07-31T10:27:26;100408.09;;;19.86;100.00
75692;BME280;64307;52.508;6.090;2023-07-31T10:29:55;100404.97;;;19.66;100.00
75692;BME280;64307;52.508;6.090;2023-07-31T10:32:22;100400.53;;;20.28;100.00
75692;BME280;64307;52.508;6.090;2023-07-31T10:34:49;100381.41;;;19.78;100.00
75692;BME280;64307;52.508;6.090;2023-07-31T10:42:35;100400.16;;;19.27;100.00
75692;BME280;64307;52.508;6.090;2023-07-31T10:45:05;100395.91;;;19.22;100.00
75692;BME280;64307;52.508;6.090;2023-07-31T10:47:37;100390.22;;;19.62;100.00
75692;BME280;64307;52.508;6.090;2023-07-31T10:50:22;100395.19;;;20.03;100.00
75692;BME280;64307;52.508;6.090;2023-07-31T10:52:50;100404.38;;;21.00;100.00
75692;BME280;64307;52.508;6.090;2023-07-31T10:55:38;100389.63;;;21.05;100.00
75692;BME280;64307;52.508;6.090;2023-07-31T10:58:06;100395.59;;;20.98;100.00
75692;BME280;64307;52.508;6.090;2023-07-31T11:00:32;100394.91;;;21.12;100.00
75692;BME280;64307;52.508;6.090;2023-07-31T11:03:02;100390.69;;;20.75;100.00
75692;BME280;64307;52.508;6.090;2023-07-31T11:08:17;100394.13;;;19.74;100.00
75692;BME280;64307;52.508;6.090;2023-07-31T11:10:45;100393.16;;;19.77;100.00
75692;BME280;64307;52.508;6.090;2023-07-31T11:13:11;100397.56;;;19.69;100.00
75692;BME280;64307;52.508;6.090;2023-07-31T11:15:37;100387.06;;;19.51;100.00
75692;BME280;64307;52.508;6.090;2023-07-31T11:18:03;100382.34;;;19.57;100.00
75692;BME280;64307;52.508;6.090;2023-07-31T11:20:30;100397.09;;;19.79;100.00
75692;BME280;64307;52.508;6.090;2023-07-31T11:22:59;100395.69;;;19.75;100.00
75692;BME280;64307;52.508;6.090;2023-07-31T11:25:24;100401.34;;;20.29;100.00
75692;BME280;64307;52.508;6.090;2023-07-31T11:27:50;100399.13;;;20.24;100.00
75692;BME280;64307;52.508;6.090;2023-07-31T11:30:19;100394.72;;;20.32;100.00
75692;BME280;64307;52.508;6.090;2023-07-31T11:32:44;100396.94;;;20.19;100.00
75692;BME280;64307;52.508;6.090;2023-07-31T11:35:12;100399.25;;;20.48;100.00
75692;BME280;64307;52.508;6.090;2023-07-31T11:37:41;100387.38;;;20.76;100.00
75692;BME280;64307;52.508;6.090;2023-07-31T11:40:07;100393.31;;;21.20;100.00
75692;BME280;64307;52.508;6.090;2023-07-31T11:42:34;100394.94;;;21.36;100.00
75692;BME280;64307;52.508;6.090;2023-07-31T11:45:05;100386.50;;;21.50;100.00
75692;BME280;64307;52.508;6.090;2023-07-31T11:47:32;100401.25;;;21.07;100.00
75692;BME280;64307;52.508;6.090;2023-07-31T11:49:59;100394.72;;;20.83;100.00
75692;BME280;64307;52.508;6.090;2023-07-31T11:52:25;100398.28;;;20.51;100.00
75692;BME280;64307;52.508;6.090;2023-07-31T11:54:51;100393.78;;;20.35;100.00
75692;BME280;64307;52.508;6.090;2023-07-31T11:57:18;100395.84;;;20.25;100.00
75692;BME280;64307;52.508;6.090;2023-07-31T11:59:44;100390.19;;;20.25;100.00
75692;BME280;64307;52.508;6.090;2023-07-31T12:02:09;100392.00;;;20.56;100.00
75692;BME280;64307;52.508;6.090;2023-07-31T12:04:35;100384.72;;;20.64;100.00
75692;BME280;64307;52.508;6.090;2023-07-31T12:07:01;100383.78;;;20.67;100.00
75692;BME280;64307;52.508;6.090;2023-07-31T12:09:26;100397.53;;;20.50;100.00
75692;BME280;64307;52.508;6.090;2023-07-31T12:11:51;100386.00;;;20.63;100.00
75692;BME280;64307;52.508;6.090;2023-07-31T12:14:29;100394.44;;;20.72;100.00
75692;BME280;64307;52.508;6.090;2023-07-31T12:17:00;100399.84;;;20.61;100.00
75692;BME280;64307;52.508;6.090;2023-07-31T12:19:26;100397.22;;;20.30;100.00
75692;BME280;64307;52.508;6.090;2023-07-31T12:21:58;100413.44;;;19.84;100.00
75692;BME280;64307;52.508;6.090;2023-07-31T12:24:26;100403.69;;;19.85;100.00
75692;BME280;64307;52.508;6.090;2023-07-31T12:26:52;100406.34;;;20.16;100.00
75692;BME280;64307;52.508;6.090;2023-07-31T12:29:17;100397.84;;;20.52;100.00
75692;BME280;64307;52.508;6.090;2023-07-31T12:31:43;100394.94;;;20.61;100.00
75692;BME280;64307;52.508;6.090;2023-07-31T12:34:19;100396.59;;;20.44;100.00
75692;BME280;64307;52.508;6.090;2023-07-31T12:36:45;100396.69;;;20.59;100.00
75692;BME280;64307;52.508;6.090;2023-07-31T12:39:12;100394.56;;;20.86;100.00
75692;BME280;64307;52.508;6.090;2023-07-31T12:41:37;100393.41;;;20.51;100.00
75692;BME280;64307;52.508;6.090;2023-07-31T12:44:03;100384.34;;;20.80;100.00
75692;BME280;64307;52.508;6.090;2023-07-31T12:46:28;100391.22;;;21.30;100.00
75692;BME280;64307;52.508;6.090;2023-07-31T12:48:54;100387.03;;;21.63;100.00
75692;BME280;64307;52.508;6.090;2023-07-31T12:51:19;100382.41;;;20.95;100.00